sensor_id;sensor_type;location;lat;lon;timestamp;P1;durP1;ratioP1;P2;durP2;ratioP2
12535;SDS011;6334;48.696;2.114;2022-08-19T00:00:17;5.70;;;5.20;;
12535;SDS011;6334;48.696;2.114;2022-08-19T00:02:47;7.23;;;5.60;;
12535;SDS011;6334;48.696;2.114;2022-08-19T00:05:18;8.63;;;5.60;;
12535;SDS011;6334;48.696;2.114;2022-08-19T00:07:48;6.27;;;5.20;;
12535;SDS011;6334;48.696;2.114;2022-08-19T00:10:18;5.90;;;5.30;;
12535;SDS011;6334;48.696;2.114;2022-08-19T00:12:48;7.30;;;5.70;;
12535;SDS011;6334;48.696;2.114;2022-08-19T00:15:19;7.97;;;5.53;;
12535;SDS011;6334;48.696;2.114;2022-08-19T00:17:49;7.40;;;5.50;;
12535;SDS011;6334;48.696;2.114;2022-08-19T00:20:21;6.30;;;5.50;;
12535;SDS011;6334;48.696;2.114;2022-08-19T00:22:50;6.17;;;5.47;;
12535;SDS011;6334;48.696;2.114;2022-08-19T00:25:21;7.77;;;5.77;;
12535;SDS011;6334;48.696;2.114;2022-08-19T00:27:51;7.90;;;5.07;;
12535;SDS011;6334;48.696;2.114;2022-08-19T00:30:22;6.90;;;5.60;;
12535;SDS011;6334;48.696;2.114;2022-08-19T00:32:52;6.67;;;5.33;;
12535;SDS011;6334;48.696;2.114;2022-08-19T00:35:23;8.07;;;5.60;;
12535;SDS011;6334;48.696;2.114;2022-08-19T00:37:53;6.70;;;5.27;;
12535;SDS011;6334;48.696;2.114;2022-08-19T00:40:23;6.83;;;5.47;;
12535;SDS011;6334;48.696;2.114;2022-08-19T00:42:54;6.13;;;5.33;;
12535;SDS011;6334;48.696;2.114;2022-08-19T00:45:25;9.47;;;5.63;;
12535;SDS011;6334;48.696;2.114;2022-08-19T00:47:55;9.50;;;6.50;;
12535;SDS011;6334;48.696;2.114;2022-08-19T00:50:25;7.10;;;5.80;;
12535;SDS011;6334;48.696;2.114;2022-08-19T00:52:56;7.47;;;5.70;;
12535;SDS011;6334;48.696;2.114;2022-08-19T00:55:26;7.00;;;5.67;;
12535;SDS011;6334;48.696;2.114;2022-08-19T00:58:01;6.80;;;5.43;;
12535;SDS011;6334;48.696;2.114;2022-08-19T01:00:30;6.03;;;5.37;;
12535;SDS011;6334;48.696;2.114;2022-08-19T01:03:00;6.43;;;5.43;;
12535;SDS011;6334;48.696;2.114;2022-08-19T01:05:31;8.17;;;5.87;;
12535;SDS011;6334;48.696;2.114;2022-08-19T01:08:02;7.27;;;5.77;;
12535;SDS011;6334;48.696;2.114;2022-08-19T01:10:33;6.50;;;5.40;;
12535;SDS011;6334;48.696;2.114;2022-08-19T01:13:02;5.83;;;5.23;;
12535;SDS011;6334;48.696;2.114;2022-08-19T01:15:35;9.00;;;5.90;;
12535;SDS011;6334;48.696;2.114;2022-08-19T01:18:07;7.20;;;5.33;;
12535;SDS011;6334;48.696;2.114;2022-08-19T01:20:36;9.37;;;6.10;;
12535;SDS011;6334;48.696;2.114;2022-08-19T01:23:07;9.30;;;6.27;;
12535;SDS011;6334;48.696;2.114;2022-08-19T01:25:47;8.00;;;5.53;;
12535;SDS011;6334;48.696;2.114;2022-08-19T01:28:26;6.33;;;5.43;;
12535;SDS011;6334;48.696;2.114;2022-08-19T01:30:46;8.33;;;5.60;;
12535;SDS011;6334;48.696;2.114;2022-08-19T01:33:17;7.47;;;5.80;;
12535;SDS011;6334;48.696;2.114;2022-08-19T01:35:47;7.43;;;5.50;;
12535;SDS011;6334;48.696;2.114;2022-08-19T01:38:22;7.83;;;5.50;;
12535;SDS011;6334;48.696;2.114;2022-08-19T01:40:54;7.73;;;5.90;;
12535;SDS011;6334;48.696;2.114;2022-08-19T01:43:24;6.80;;;5.50;;
12535;SDS011;6334;48.696;2.114;2022-08-19T01:45:55;7.87;;;5.63;;
12535;SDS011;6334;48.696;2.114;2022-08-19T01:48:25;6.00;;;5.40;;
12535;SDS011;6334;48.696;2.114;2022-08-19T01:50:55;7.87;;;5.90;;
12535;SDS011;6334;48.696;2.114;2022-08-19T01:53:26;6.53;;;5.37;;
12535;SDS011;6334;48.696;2.114;2022-08-19T01:55:56;7.63;;;5.43;;
12535;SDS011;6334;48.696;2.114;2022-08-19T01:58:29;7.93;;;5.90;;
12535;SDS011;6334;48.696;2.114;2022-08-19T02:00:58;9.73;;;6.07;;
12535;SDS011;6334;48.696;2.114;2022-08-19T02:03:28;7.87;;;5.97;;
12535;SDS011;6334;48.696;2.114;2022-08-19T02:05:59;7.93;;;5.87;;
12535;SDS011;6334;48.696;2.114;2022-08-19T02:08:29;6.47;;;5.40;;
12535;SDS011;6334;48.696;2.114;2022-08-19T02:10:59;9.77;;;5.93;;
12535;SDS011;6334;48.696;2.114;2022-08-19T02:13:30;6.33;;;5.50;;
12535;SDS011;6334;48.696;2.114;2022-08-19T02:16:00;6.73;;;5.33;;
12535;SDS011;6334;48.696;2.114;2022-08-19T02:18:30;7.10;;;5.57;;
12535;SDS011;6334;48.696;2.114;2022-08-19T02:21:01;10.80;;;6.37;;
12535;SDS011;6334;48.696;2.114;2022-08-19T02:23:31;9.77;;;5.93;;
12535;SDS011;6334;48.696;2.114;2022-08-19T02:26:02;7.20;;;5.47;;
12535;SDS011;6334;48.696;2.114;2022-08-19T02:28:32;7.63;;;5.60;;
12535;SDS011;6334;48.696;2.114;2022-08-19T02:31:03;10.70;;;5.60;;
12535;SDS011;6334;48.696;2.114;2022-08-19T02:33:33;7.77;;;6.10;;
12535;SDS011;6334;48.696;2.114;2022-08-19T02:36:04;9.60;;;6.07;;
12535;SDS011;6334;48.696;2.114;2022-08-19T02:38:34;7.27;;;5.87;;
12535;SDS011;6334;48.696;2.114;2022-08-19T02:41:10;10.03;;;6.17;;
12535;SDS011;6334;48.696;2.114;2022-08-19T02:43:38;9.87;;;6.80;;
12535;SDS011;6334;48.696;2.114;2022-08-19T02:46:18;7.90;;;5.97;;
12535;SDS011;6334;48.696;2.114;2022-08-19T02:48:50;8.20;;;6.03;;
12535;SDS011;6334;48.696;2.114;2022-08-19T02:51:24;7.07;;;5.80;;
12535;SDS011;6334;48.696;2.114;2022-08-19T02:53:50;10.13;;;6.30;;
12535;SDS011;6334;48.696;2.114;2022-08-19T02:56:21;8.77;;;6.80;;
12535;SDS011;6334;48.696;2.114;2022-08-19T02:58:51;9.50;;;5.77;;
12535;SDS011;6334;48.696;2.114;2022-08-19T03:01:25;10.40;;;6.50;;
12535;SDS011;6334;48.696;2.114;2022-08-19T03:03:55;9.03;;;6.30;;
12535;SDS011;6334;48.696;2.114;2022-08-19T03:06:25;9.57;;;6.33;;
12535;SDS011;6334;48.696;2.114;2022-08-19T03:08:55;8.27;;;6.17;;
12535;SDS011;6334;48.696;2.114;2022-08-19T03:11:27;11.50;;;6.40;;
12535;SDS011;6334;48.696;2.114;2022-08-19T03:13:57;8.70;;;6.30;;
12535;SDS011;6334;48.696;2.114;2022-08-19T03:16:28;8.67;;;6.67;;
12535;SDS011;6334;48.696;2.114;2022-08-19T03:18:57;8.27;;;6.00;;
12535;SDS011;6334;48.696;2.114;2022-08-19T03:21:31;6.63;;;5.57;;
12535;SDS011;6334;48.696;2.114;2022-08-19T03:24:02;9.47;;;5.93;;
12535;SDS011;6334;48.696;2.114;2022-08-19T03:26:31;9.33;;;6.30;;
12535;SDS011;6334;48.696;2.114;2022-08-19T03:29:03;9.73;;;6.10;;
12535;SDS011;6334;48.696;2.114;2022-08-19T03:31:32;8.57;;;6.10;;
12535;SDS011;6334;48.696;2.114;2022-08-19T03:34:03;8.60;;;5.97;;
12535;SDS011;6334;48.696;2.114;2022-08-19T03:36:33;10.90;;;6.60;;
12535;SDS011;6334;48.696;2.114;2022-08-19T03:39:04;8.70;;;6.30;;
12535;SDS011;6334;48.696;2.114;2022-08-19T03:41:36;9.27;;;5.73;;
12535;SDS011;6334;48.696;2.114;2022-08-19T03:44:07;10.37;;;6.63;;
12535;SDS011;6334;48.696;2.114;2022-08-19T03:46:38;7.90;;;5.87;;
12535;SDS011;6334;48.696;2.114;2022-08-19T03:49:08;8.47;;;5.90;;
12535;SDS011;6334;48.696;2.114;2022-08-19T03:51:39;7.90;;;5.80;;
12535;SDS011;6334;48.696;2.114;2022-08-19T03:54:10;10.93;;;5.93;;
12535;SDS011;6334;48.696;2.114;2022-08-19T03:56:40;8.83;;;5.47;;
12535;SDS011;6334;48.696;2.114;2022-08-19T03:59:11;10.13;;;6.37;;
12535;SDS011;6334;48.696;2.114;2022-08-19T04:01:41;7.00;;;5.37;;
12535;SDS011;6334;48.696;2.114;2022-08-19T04:04:11;6.60;;;5.03;;
12535;SDS011;6334;48.696;2.114;2022-08-19T04:06:42;5.87;;;5.07;;
12535;SDS011;6334;48.696;2.114;2022-08-19T04:09:12;8.00;;;5.30;;
12535;SDS011;6334;48.696;2.114;2022-08-19T04:11:44;5.67;;;5.07;;
12535;SDS011;6334;48.696;2.114;2022-08-19T04:14:19;6.73;;;5.23;;
12535;SDS011;6334;48.696;2.114;2022-08-19T04:16:44;6.50;;;5.43;;
12535;SDS011;6334;48.696;2.114;2022-08-19T04:19:14;7.57;;;5.00;;
12535;SDS011;6334;48.696;2.114;2022-08-19T04:21:45;5.83;;;5.23;;
12535;SDS011;6334;48.696;2.114;2022-08-19T04:24:15;7.30;;;5.20;;
12535;SDS011;6334;48.696;2.114;2022-08-19T04:26:45;8.47;;;5.53;;
12535;SDS011;6334;48.696;2.114;2022-08-19T04:29:17;6.23;;;5.20;;
12535;SDS011;6334;48.696;2.114;2022-08-19T04:31:46;6.93;;;4.90;;
12535;SDS011;6334;48.696;2.114;2022-08-19T04:34:17;6.93;;;5.37;;
12535;SDS011;6334;48.696;2.114;2022-08-19T04:36:47;7.67;;;5.20;;
12535;SDS011;6334;48.696;2.114;2022-08-19T04:39:19;5.53;;;4.87;;
12535;SDS011;6334;48.696;2.114;2022-08-19T04:41:48;7.37;;;5.00;;
12535;SDS011;6334;48.696;2.114;2022-08-19T04:44:37;6.37;;;4.90;;
12535;SDS011;6334;48.696;2.114;2022-08-19T04:47:07;7.33;;;5.27;;
12535;SDS011;6334;48.696;2.114;2022-08-19T04:49:37;9.30;;;4.90;;
12535;SDS011;6334;48.696;2.114;2022-08-19T04:52:08;5.83;;;4.43;;
12535;SDS011;6334;48.696;2.114;2022-08-19T04:54:38;5.37;;;4.57;;
12535;SDS011;6334;48.696;2.114;2022-08-19T04:57:09;5.30;;;4.80;;
12535;SDS011;6334;48.696;2.114;2022-08-19T04:59:39;7.10;;;5.03;;
12535;SDS011;6334;48.696;2.114;2022-08-19T05:02:10;5.93;;;4.97;;
12535;SDS011;6334;48.696;2.114;2022-08-19T05:04:40;6.83;;;4.77;;
12535;SDS011;6334;48.696;2.114;2022-08-19T05:07:11;8.00;;;5.37;;
12535;SDS011;6334;48.696;2.114;2022-08-19T05:09:41;6.60;;;5.03;;
12535;SDS011;6334;48.696;2.114;2022-08-19T05:12:12;5.67;;;5.07;;
12535;SDS011;6334;48.696;2.114;2022-08-19T05:14:42;6.27;;;5.00;;
12535;SDS011;6334;48.696;2.114;2022-08-19T05:17:13;5.77;;;4.87;;
12535;SDS011;6334;48.696;2.114;2022-08-19T05:19:43;7.97;;;5.03;;
12535;SDS011;6334;48.696;2.114;2022-08-19T05:22:31;7.10;;;4.83;;
12535;SDS011;6334;48.696;2.114;2022-08-19T05:25:04;6.00;;;5.07;;
12535;SDS011;6334;48.696;2.114;2022-08-19T05:27:35;7.20;;;4.80;;
12535;SDS011;6334;48.696;2.114;2022-08-19T05:30:06;7.23;;;4.90;;
12535;SDS011;6334;48.696;2.114;2022-08-19T05:32:36;7.53;;;5.10;;
12535;SDS011;6334;48.696;2.114;2022-08-19T05:35:06;6.17;;;4.90;;
12535;SDS011;6334;48.696;2.114;2022-08-19T05:37:37;6.73;;;4.90;;
12535;SDS011;6334;48.696;2.114;2022-08-19T05:40:08;6.27;;;4.50;;
12535;SDS011;6334;48.696;2.114;2022-08-19T05:42:38;10.17;;;4.60;;
12535;SDS011;6334;48.696;2.114;2022-08-19T05:45:08;5.57;;;4.57;;
12535;SDS011;6334;48.696;2.114;2022-08-19T05:47:39;5.80;;;4.20;;
12535;SDS011;6334;48.696;2.114;2022-08-19T05:50:09;4.40;;;4.00;;
12535;SDS011;6334;48.696;2.114;2022-08-19T05:52:40;4.57;;;4.03;;
12535;SDS011;6334;48.696;2.114;2022-08-19T05:55:10;5.73;;;4.43;;
12535;SDS011;6334;48.696;2.114;2022-08-19T05:57:41;5.50;;;4.37;;
12535;SDS011;6334;48.696;2.114;2022-08-19T06:00:11;4.40;;;3.93;;
12535;SDS011;6334;48.696;2.114;2022-08-19T06:02:42;4.00;;;3.67;;
12535;SDS011;6334;48.696;2.114;2022-08-19T06:05:12;4.40;;;3.73;;
12535;SDS011;6334;48.696;2.114;2022-08-19T06:07:43;4.77;;;3.90;;
12535;SDS011;6334;48.696;2.114;2022-08-19T06:10:13;4.30;;;3.83;;
12535;SDS011;6334;48.696;2.114;2022-08-19T06:12:44;5.10;;;4.00;;
12535;SDS011;6334;48.696;2.114;2022-08-19T06:15:14;5.43;;;3.63;;
12535;SDS011;6334;48.696;2.114;2022-08-19T06:17:44;3.80;;;3.50;;
12535;SDS011;6334;48.696;2.114;2022-08-19T06:20:15;4.10;;;3.70;;
12535;SDS011;6334;48.696;2.114;2022-08-19T06:22:46;4.83;;;3.77;;
12535;SDS011;6334;48.696;2.114;2022-08-19T06:25:16;3.60;;;3.30;;
12535;SDS011;6334;48.696;2.114;2022-08-19T06:27:46;3.90;;;3.43;;
12535;SDS011;6334;48.696;2.114;2022-08-19T06:30:17;3.33;;;3.03;;
12535;SDS011;6334;48.696;2.114;2022-08-19T06:32:47;3.80;;;3.50;;
12535;SDS011;6334;48.696;2.114;2022-08-19T06:35:18;4.00;;;3.13;;
12535;SDS011;6334;48.696;2.114;2022-08-19T06:37:48;4.80;;;3.67;;
12535;SDS011;6334;48.696;2.114;2022-08-19T06:40:19;3.80;;;2.87;;
12535;SDS011;6334;48.696;2.114;2022-08-19T06:42:49;4.60;;;3.40;;
12535;SDS011;6334;48.696;2.114;2022-08-19T06:45:19;3.30;;;3.07;;
12535;SDS011;6334;48.696;2.114;2022-08-19T06:47:50;3.70;;;3.40;;
12535;SDS011;6334;48.696;2.114;2022-08-19T06:50:20;4.17;;;3.23;;
12535;SDS011;6334;48.696;2.114;2022-08-19T06:52:51;3.00;;;2.80;;
12535;SDS011;6334;48.696;2.114;2022-08-19T06:55:21;3.57;;;3.27;;
12535;SDS011;6334;48.696;2.114;2022-08-19T06:57:52;3.17;;;2.87;;
12535;SDS011;6334;48.696;2.114;2022-08-19T07:00:22;2.97;;;2.77;;
12535;SDS011;6334;48.696;2.114;2022-08-19T07:02:53;4.43;;;3.10;;
12535;SDS011;6334;48.696;2.114;2022-08-19T07:05:23;4.73;;;3.60;;
12535;SDS011;6334;48.696;2.114;2022-08-19T07:07:54;3.33;;;2.70;;
12535;SDS011;6334;48.696;2.114;2022-08-19T07:10:24;3.00;;;2.80;;
12535;SDS011;6334;48.696;2.114;2022-08-19T07:12:54;2.67;;;2.57;;
12535;SDS011;6334;48.696;2.114;2022-08-19T07:15:25;4.30;;;2.97;;
12535;SDS011;6334;48.696;2.114;2022-08-19T07:17:55;2.73;;;2.53;;
12535;SDS011;6334;48.696;2.114;2022-08-19T07:20:26;6.10;;;2.70;;
12535;SDS011;6334;48.696;2.114;2022-08-19T07:22:56;5.23;;;3.00;;
12535;SDS011;6334;48.696;2.114;2022-08-19T07:25:27;2.77;;;2.57;;
12535;SDS011;6334;48.696;2.114;2022-08-19T07:27:57;2.53;;;2.33;;
12535;SDS011;6334;48.696;2.114;2022-08-19T07:30:28;3.47;;;2.80;;
12535;SDS011;6334;48.696;2.114;2022-08-19T07:32:58;3.53;;;2.83;;
12535;SDS011;6334;48.696;2.114;2022-08-19T07:35:29;2.47;;;2.37;;
12535;SDS011;6334;48.696;2.114;2022-08-19T07:37:59;3.73;;;2.77;;
12535;SDS011;6334;48.696;2.114;2022-08-19T07:40:29;2.93;;;2.73;;
12535;SDS011;6334;48.696;2.114;2022-08-19T07:43:00;2.63;;;2.43;;
12535;SDS011;6334;48.696;2.114;2022-08-19T07:45:30;4.10;;;2.63;;
12535;SDS011;6334;48.696;2.114;2022-08-19T07:48:01;3.00;;;2.30;;
12535;SDS011;6334;48.696;2.114;2022-08-19T07:50:31;2.97;;;2.77;;
12535;SDS011;6334;48.696;2.114;2022-08-19T07:53:02;2.50;;;2.40;;
12535;SDS011;6334;48.696;2.114;2022-08-19T07:55:32;2.87;;;2.53;;
12535;SDS011;6334;48.696;2.114;2022-08-19T07:58:03;3.40;;;2.53;;
12535;SDS011;6334;48.696;2.114;2022-08-19T08:00:33;3.33;;;3.03;;
12535;SDS011;6334;48.696;2.114;2022-08-19T08:03:04;4.57;;;2.87;;
12535;SDS011;6334;48.696;2.114;2022-08-19T08:05:34;3.20;;;2.90;;
12535;SDS011;6334;48.696;2.114;2022-08-19T08:08:23;2.77;;;2.60;;
12535;SDS011;6334;48.696;2.114;2022-08-19T08:11:03;2.67;;;2.47;;
12535;SDS011;6334;48.696;2.114;2022-08-19T08:13:33;4.27;;;2.80;;
12535;SDS011;6334;48.696;2.114;2022-08-19T08:16:03;2.77;;;2.53;;
12535;SDS011;6334;48.696;2.114;2022-08-19T08:18:33;2.70;;;2.50;;
12535;SDS011;6334;48.696;2.114;2022-08-19T08:21:04;5.00;;;3.00;;
12535;SDS011;6334;48.696;2.114;2022-08-19T08:23:34;2.77;;;2.63;;
12535;SDS011;6334;48.696;2.114;2022-08-19T08:26:05;2.27;;;2.17;;
12535;SDS011;6334;48.696;2.114;2022-08-19T08:28:35;3.03;;;2.67;;
12535;SDS011;6334;48.696;2.114;2022-08-19T08:31:06;3.03;;;2.60;;
12535;SDS011;6334;48.696;2.114;2022-08-19T08:33:36;6.07;;;2.73;;
12535;SDS011;6334;48.696;2.114;2022-08-19T08:36:09;3.13;;;2.70;;
12535;SDS011;6334;48.696;2.114;2022-08-19T08:38:42;3.87;;;2.77;;
12535;SDS011;6334;48.696;2.114;2022-08-19T08:43:57;2.37;;;2.27;;
12535;SDS011;6334;48.696;2.114;2022-08-19T08:46:34;3.60;;;2.50;;
12535;SDS011;6334;48.696;2.114;2022-08-19T08:51:52;3.30;;;2.80;;
12535;SDS011;6334;48.696;2.114;2022-08-19T08:54:22;2.43;;;2.33;;
12535;SDS011;6334;48.696;2.114;2022-08-19T08:56:52;2.57;;;2.37;;
12535;SDS011;6334;48.696;2.114;2022-08-19T09:01:53;3.53;;;2.40;;
12535;SDS011;6334;48.696;2.114;2022-08-19T09:04:23;2.27;;;2.10;;
12535;SDS011;6334;48.696;2.114;2022-08-19T09:12:15;3.43;;;2.80;;
12535;SDS011;6334;48.696;2.114;2022-08-19T09:14:50;2.60;;;2.40;;
12535;SDS011;6334;48.696;2.114;2022-08-19T09:17:24;2.57;;;2.37;;
12535;SDS011;6334;48.696;2.114;2022-08-19T09:22:20;2.63;;;2.47;;
12535;SDS011;6334;48.696;2.114;2022-08-19T09:24:50;1.97;;;1.87;;
12535;SDS011;6334;48.696;2.114;2022-08-19T09:27:21;2.63;;;2.13;;
12535;SDS011;6334;48.696;2.114;2022-08-19T09:29:51;2.47;;;2.27;;
12535;SDS011;6334;48.696;2.114;2022-08-19T09:32:21;4.73;;;2.40;;
12535;SDS011;6334;48.696;2.114;2022-08-19T09:34:52;2.13;;;2.03;;
12535;SDS011;6334;48.696;2.114;2022-08-19T09:37:22;2.63;;;2.43;;
12535;SDS011;6334;48.696;2.114;2022-08-19T09:39:53;2.27;;;2.00;;
12535;SDS011;6334;48.696;2.114;2022-08-19T09:42:23;2.37;;;2.17;;
12535;SDS011;6334;48.696;2.114;2022-08-19T09:44:54;3.30;;;2.10;;
12535;SDS011;6334;48.696;2.114;2022-08-19T09:47:24;2.30;;;2.07;;
12535;SDS011;6334;48.696;2.114;2022-08-19T09:49:54;2.00;;;1.90;;
12535;SDS011;6334;48.696;2.114;2022-08-19T09:52:25;2.03;;;1.93;;
12535;SDS011;6334;48.696;2.114;2022-08-19T09:54:55;2.30;;;2.10;;
12535;SDS011;6334;48.696;2.114;2022-08-19T09:57:26;3.07;;;2.87;;
12535;SDS011;6334;48.696;2.114;2022-08-19T09:59:56;2.60;;;2.23;;
12535;SDS011;6334;48.696;2.114;2022-08-19T10:02:27;2.33;;;2.20;;
12535;SDS011;6334;48.696;2.114;2022-08-19T10:04:57;2.47;;;2.27;;
12535;SDS011;6334;48.696;2.114;2022-08-19T10:07:46;2.70;;;2.47;;
12535;SDS011;6334;48.696;2.114;2022-08-19T10:10:16;2.40;;;2.10;;
12535;SDS011;6334;48.696;2.114;2022-08-19T10:12:47;3.13;;;2.90;;
12535;SDS011;6334;48.696;2.114;2022-08-19T10:15:17;2.17;;;2.07;;
12535;SDS011;6334;48.696;2.114;2022-08-19T10:17:47;3.00;;;2.80;;
12535;SDS011;6334;48.696;2.114;2022-08-19T10:20:18;2.30;;;2.20;;
12535;SDS011;6334;48.696;2.114;2022-08-19T10:22:48;3.10;;;2.80;;
12535;SDS011;6334;48.696;2.114;2022-08-19T10:25:19;2.37;;;2.27;;
12535;SDS011;6334;48.696;2.114;2022-08-19T10:27:49;2.27;;;2.17;;
12535;SDS011;6334;48.696;2.114;2022-08-19T10:30:20;2.70;;;2.60;;
12535;SDS011;6334;48.696;2.114;2022-08-19T10:32:50;2.60;;;2.40;;
12535;SDS011;6334;48.696;2.114;2022-08-19T10:35:21;3.10;;;2.83;;
12535;SDS011;6334;48.696;2.114;2022-08-19T10:37:51;2.80;;;2.40;;
12535;SDS011;6334;48.696;2.114;2022-08-19T10:40:22;2.70;;;2.50;;
12535;SDS011;6334;48.696;2.114;2022-08-19T10:42:52;2.87;;;2.67;;
12535;SDS011;6334;48.696;2.114;2022-08-19T10:45:22;2.43;;;2.33;;
12535;SDS011;6334;48.696;2.114;2022-08-19T10:47:53;4.23;;;2.70;;
12535;SDS011;6334;48.696;2.114;2022-08-19T10:50:23;2.67;;;2.57;;
12535;SDS011;6334;48.696;2.114;2022-08-19T10:53:12;2.87;;;2.67;;
12535;SDS011;6334;48.696;2.114;2022-08-19T10:55:44;2.80;;;2.60;;
12535;SDS011;6334;48.696;2.114;2022-08-19T10:58:31;3.90;;;2.67;;
12535;SDS011;6334;48.696;2.114;2022-08-19T11:01:02;3.43;;;2.57;;
12535;SDS011;6334;48.696;2.114;2022-08-19T11:03:32;2.77;;;2.57;;
12535;SDS011;6334;48.696;2.114;2022-08-19T11:06:04;2.20;;;2.10;;
12535;SDS011;6334;48.696;2.114;2022-08-19T11:08:34;3.23;;;2.30;;
12535;SDS011;6334;48.696;2.114;2022-08-19T11:11:04;2.30;;;2.20;;
12535;SDS011;6334;48.696;2.114;2022-08-19T11:13:36;3.17;;;2.03;;
12535;SDS011;6334;48.696;2.114;2022-08-19T11:16:13;1.83;;;1.73;;
12535;SDS011;6334;48.696;2.114;2022-08-19T11:18:45;2.10;;;2.00;;
12535;SDS011;6334;48.696;2.114;2022-08-19T11:21:16;2.77;;;2.57;;
12535;SDS011;6334;48.696;2.114;2022-08-19T11:23:51;3.43;;;2.70;;
12535;SDS011;6334;48.696;2.114;2022-08-19T11:26:21;2.10;;;2.00;;
12535;SDS011;6334;48.696;2.114;2022-08-19T11:28:51;2.93;;;2.20;;
12535;SDS011;6334;48.696;2.114;2022-08-19T11:31:23;2.73;;;2.53;;
12535;SDS011;6334;48.696;2.114;2022-08-19T11:33:52;2.60;;;2.40;;
12535;SDS011;6334;48.696;2.114;2022-08-19T11:36:23;2.10;;;2.00;;
12535;SDS011;6334;48.696;2.114;2022-08-19T11:38:53;2.70;;;2.47;;
12535;SDS011;6334;48.696;2.114;2022-08-19T11:41:24;3.17;;;2.33;;
12535;SDS011;6334;48.696;2.114;2022-08-19T11:46:18;3.67;;;2.80;;
12535;SDS011;6334;48.696;2.114;2022-08-19T11:48:47;3.30;;;3.03;;
12535;SDS011;6334;48.696;2.114;2022-08-19T11:51:19;3.67;;;3.37;;
12535;SDS011;6334;48.696;2.114;2022-08-19T11:53:48;3.13;;;2.80;;
12535;SDS011;6334;48.696;2.114;2022-08-19T11:56:19;2.47;;;2.37;;
12535;SDS011;6334;48.696;2.114;2022-08-19T11:58:49;2.60;;;2.40;;
12535;SDS011;6334;48.696;2.114;2022-08-19T12:01:21;2.50;;;2.33;;
12535;SDS011;6334;48.696;2.114;2022-08-19T12:03:51;2.70;;;2.53;;
12535;SDS011;6334;48.696;2.114;2022-08-19T12:06:22;2.63;;;2.40;;
12535;SDS011;6334;48.696;2.114;2022-08-19T12:08:51;4.07;;;2.33;;
12535;SDS011;6334;48.696;2.114;2022-08-19T12:11:22;2.80;;;2.60;;
12535;SDS011;6334;48.696;2.114;2022-08-19T12:13:52;2.37;;;2.27;;
12535;SDS011;6334;48.696;2.114;2022-08-19T12:16:23;2.77;;;2.57;;
12535;SDS011;6334;48.696;2.114;2022-08-19T12:18:53;2.87;;;2.00;;
12535;SDS011;6334;48.696;2.114;2022-08-19T12:21:24;2.40;;;2.10;;
12535;SDS011;6334;48.696;2.114;2022-08-19T12:23:54;2.87;;;2.63;;
12535;SDS011;6334;48.696;2.114;2022-08-19T12:26:25;2.90;;;2.70;;
12535;SDS011;6334;48.696;2.114;2022-08-19T12:28:55;2.33;;;2.17;;
12535;SDS011;6334;48.696;2.114;2022-08-19T12:31:26;2.80;;;2.60;;
12535;SDS011;6334;48.696;2.114;2022-08-19T12:33:56;3.13;;;2.77;;
12535;SDS011;6334;48.696;2.114;2022-08-19T12:36:26;2.37;;;2.27;;
12535;SDS011;6334;48.696;2.114;2022-08-19T12:38:57;2.37;;;2.17;;
12535;SDS011;6334;48.696;2.114;2022-08-19T12:41:27;3.60;;;2.70;;
12535;SDS011;6334;48.696;2.114;2022-08-19T12:43:57;2.23;;;2.13;;
12535;SDS011;6334;48.696;2.114;2022-08-19T12:46:28;2.67;;;2.30;;
12535;SDS011;6334;48.696;2.114;2022-08-19T12:48:58;2.17;;;1.97;;
12535;SDS011;6334;48.696;2.114;2022-08-19T12:51:29;2.10;;;1.90;;
12535;SDS011;6334;48.696;2.114;2022-08-19T12:53:59;2.13;;;2.03;;
12535;SDS011;6334;48.696;2.114;2022-08-19T12:56:30;1.97;;;1.87;;
12535;SDS011;6334;48.696;2.114;2022-08-19T12:59:01;2.00;;;1.83;;
12535;SDS011;6334;48.696;2.114;2022-08-19T13:01:31;1.93;;;1.83;;
12535;SDS011;6334;48.696;2.114;2022-08-19T13:04:01;2.27;;;2.07;;
12535;SDS011;6334;48.696;2.114;2022-08-19T13:06:31;1.70;;;1.60;;
12535;SDS011;6334;48.696;2.114;2022-08-19T13:09:02;1.73;;;1.63;;
12535;SDS011;6334;48.696;2.114;2022-08-19T13:11:32;2.00;;;1.90;;
12535;SDS011;6334;48.696;2.114;2022-08-19T13:14:03;1.60;;;1.50;;
12535;SDS011;6334;48.696;2.114;2022-08-19T13:16:33;1.80;;;1.70;;
12535;SDS011;6334;48.696;2.114;2022-08-19T13:19:04;1.60;;;1.50;;
12535;SDS011;6334;48.696;2.114;2022-08-19T13:21:34;1.93;;;1.87;;
12535;SDS011;6334;48.696;2.114;2022-08-19T13:24:05;1.50;;;1.40;;
12535;SDS011;6334;48.696;2.114;2022-08-19T13:26:35;1.73;;;1.63;;
12535;SDS011;6334;48.696;2.114;2022-08-19T13:29:06;1.80;;;1.70;;
12535;SDS011;6334;48.696;2.114;2022-08-19T13:31:54;2.13;;;1.90;;
12535;SDS011;6334;48.696;2.114;2022-08-19T13:34:43;1.33;;;1.23;;
12535;SDS011;6334;48.696;2.114;2022-08-19T13:37:13;1.70;;;1.70;;
12535;SDS011;6334;48.696;2.114;2022-08-19T13:39:44;1.50;;;1.50;;
12535;SDS011;6334;48.696;2.114;2022-08-19T13:42:14;1.53;;;1.53;;
12535;SDS011;6334;48.696;2.114;2022-08-19T13:44:45;2.20;;;1.70;;
12535;SDS011;6334;48.696;2.114;2022-08-19T13:47:15;1.80;;;1.70;;
12535;SDS011;6334;48.696;2.114;2022-08-19T13:49:46;2.07;;;1.97;;
12535;SDS011;6334;48.696;2.114;2022-08-19T13:52:16;2.10;;;2.00;;
12535;SDS011;6334;48.696;2.114;2022-08-19T13:54:46;1.83;;;1.73;;
12535;SDS011;6334;48.696;2.114;2022-08-19T13:57:17;2.30;;;1.87;;
12535;SDS011;6334;48.696;2.114;2022-08-19T13:59:47;1.67;;;1.67;;
12535;SDS011;6334;48.696;2.114;2022-08-19T14:02:18;1.63;;;1.60;;
12535;SDS011;6334;48.696;2.114;2022-08-19T14:04:48;2.13;;;1.77;;
12535;SDS011;6334;48.696;2.114;2022-08-19T14:07:19;2.63;;;1.90;;
12535;SDS011;6334;48.696;2.114;2022-08-19T14:09:50;2.23;;;2.13;;
12535;SDS011;6334;48.696;2.114;2022-08-19T14:12:20;1.77;;;1.70;;
12535;SDS011;6334;48.696;2.114;2022-08-19T14:14:50;1.77;;;1.67;;
12535;SDS011;6334;48.696;2.114;2022-08-19T14:17:21;4.07;;;2.10;;
12535;SDS011;6334;48.696;2.114;2022-08-19T14:19:57;1.80;;;1.70;;
12535;SDS011;6334;48.696;2.114;2022-08-19T14:22:27;2.20;;;2.10;;
12535;SDS011;6334;48.696;2.114;2022-08-19T14:24:58;2.03;;;1.93;;
12535;SDS011;6334;48.696;2.114;2022-08-19T14:27:28;1.70;;;1.60;;
12535;SDS011;6334;48.696;2.114;2022-08-19T14:29:59;2.17;;;1.80;;
12535;SDS011;6334;48.696;2.114;2022-08-19T14:32:29;2.60;;;1.87;;
12535;SDS011;6334;48.696;2.114;2022-08-19T14:35:00;1.83;;;1.80;;
12535;SDS011;6334;48.696;2.114;2022-08-19T14:37:30;2.20;;;2.10;;
12535;SDS011;6334;48.696;2.114;2022-08-19T14:40:01;1.97;;;1.87;;
12535;SDS011;6334;48.696;2.114;2022-08-19T14:42:31;1.90;;;1.80;;
12535;SDS011;6334;48.696;2.114;2022-08-19T14:45:02;1.60;;;1.60;;
12535;SDS011;6334;48.696;2.114;2022-08-19T14:47:32;2.53;;;1.87;;
12535;SDS011;6334;48.696;2.114;2022-08-19T14:50:02;1.60;;;1.60;;
12535;SDS011;6334;48.696;2.114;2022-08-19T14:52:33;3.13;;;1.77;;
12535;SDS011;6334;48.696;2.114;2022-08-19T14:55:04;2.30;;;1.87;;
12535;SDS011;6334;48.696;2.114;2022-08-19T14:57:34;1.60;;;1.50;;
12535;SDS011;6334;48.696;2.114;2022-08-19T15:00:04;2.00;;;1.67;;
12535;SDS011;6334;48.696;2.114;2022-08-19T15:02:35;2.40;;;1.70;;
12535;SDS011;6334;48.696;2.114;2022-08-19T15:05:05;1.60;;;1.50;;
12535;SDS011;6334;48.696;2.114;2022-08-19T15:07:36;2.07;;;1.87;;
12535;SDS011;6334;48.696;2.114;2022-08-19T15:10:06;1.43;;;1.40;;
12535;SDS011;6334;48.696;2.114;2022-08-19T15:12:38;1.47;;;1.47;;
12535;SDS011;6334;48.696;2.114;2022-08-19T15:15:12;3.23;;;1.50;;
12535;SDS011;6334;48.696;2.114;2022-08-19T15:17:39;1.53;;;1.43;;
12535;SDS011;6334;48.696;2.114;2022-08-19T15:20:09;1.70;;;1.60;;
12535;SDS011;6334;48.696;2.114;2022-08-19T15:22:39;1.50;;;1.40;;
12535;SDS011;6334;48.696;2.114;2022-08-19T15:25:10;1.50;;;1.40;;
12535;SDS011;6334;48.696;2.114;2022-08-19T15:27:40;4.23;;;1.10;;
12535;SDS011;6334;48.696;2.114;2022-08-19T15:30:11;1.30;;;1.30;;
12535;SDS011;6334;48.696;2.114;2022-08-19T15:32:41;1.30;;;1.30;;
12535;SDS011;6334;48.696;2.114;2022-08-19T15:35:11;1.93;;;1.70;;
12535;SDS011;6334;48.696;2.114;2022-08-19T15:37:42;2.10;;;2.00;;
12535;SDS011;6334;48.696;2.114;2022-08-19T15:40:12;2.00;;;1.90;;